Flight Track Log - Related Links

Times and Time Zones

All times are in EDT time to prevent confusion due to time zone crossing. See the SWA2236 flight status page for this flight to view local times or setup timezone preferences in your user account.

Time Position Orientation Groundspeed Altitude Reporting Facility
EDT Latitude Longitude Course Direction KTS MPH feet Rate Location/Type
Sun 06:47:53 PM 33.4333 -112.0333 248° West 173 199 2,200  Level Phoenix TRACON
Sun 06:49:24 PM 33.4000 -112.1333 248° West 228 262 6,000 2,327 Climbing Phoenix TRACON
Sun 06:50:20 PM 33.3556 -112.1814 222° Southwest 275 316 7,900 1,026 Climbing Albuquerque Center
Sun 06:51:21 PM 33.2792 -112.1583 166° South 295 339 8,000 49 Climbing Albuquerque Center
Sun 06:52:23 PM 33.2675 -112.0708 99° East 270 311 8,000 823 Level Albuquerque Center
Sun 06:53:25 PM 33.2583 -111.9822 97° East 271 312 9,700 1,742 Climbing Albuquerque Center
Sun 06:54:27 PM 33.2500 -111.8797 96° East 316 364 11,600 2,758 Climbing Albuquerque Center
Sun 06:55:29 PM 33.2403 -111.7381 95° East 357 411 15,400 3,194 Climbing Albuquerque Center
Sun 06:56:31 PM 33.2289 -111.6136 96° East 375 432 18,200 2,613 Climbing Albuquerque Center
Sun 06:57:33 PM 33.1961 -111.4864 107° East 400 460 20,800 2,323 Climbing Albuquerque Center
Sun 06:58:35 PM 33.1639 -111.3567 106° East 408 470 23,000 2,032 Climbing Albuquerque Center
Sun 06:59:37 PM 33.1311 -111.2178 106° East 433 498 25,000 2,244 Climbing Albuquerque Center
Sun 07:00:38 PM 33.0903 -111.0506 106° East 441 507 27,600 2,000 Climbing Albuquerque Center
Sun 07:01:40 PM 33.0550 -110.9058 106° East 452 520 29,100 1,597 Climbing Albuquerque Center
Sun 07:02:42 PM 33.0200 -110.7575 106° East 464 534 30,900 1,694 Climbing Albuquerque Center
Sun 07:03:44 PM 32.9839 -110.6144 107° East 464 534 32,600 1,024 Climbing Albuquerque Center
Sun 07:04:45 PM 32.9458 -110.4669 107° East 466 536 33,000 585 Climbing Albuquerque Center
Sun 07:05:47 PM 32.9106 -110.3203 106° East 465 535 33,800 1,210 Climbing Albuquerque Center
Sun 07:06:49 PM 32.8653 -110.1428 107° East 467 537 35,500 1,500 Climbing Albuquerque Center
Sun 07:07:51 PM 32.8264 -109.9967 108° East 467 537 36,900 1,171 Climbing Albuquerque Center
Sun 07:08:52 PM 32.7897 -109.8494 106° East 467 537 37,900 780 Climbing Albuquerque Center
Sun 07:09:54 PM 32.7528 -109.7017 107° East 469 540 38,500 532 Climbing Albuquerque Center
Sun 07:10:56 PM 32.7119 -109.5528 108° East 475 547 39,000 242 Climbing Albuquerque Center
Sun 07:11:58 PM 32.6719 -109.4006 107° East 486 559 39,000  Level Albuquerque Center
Sun 07:12:59 PM 32.6256 -109.2200 107° East 483 556 39,000  Level Albuquerque Center
Sun 07:14:01 PM 32.5856 -109.0714 108° East 480 552 39,000  Level Albuquerque Center
Sun 07:15:03 PM 32.5467 -108.9217 107° East 481 554 39,000  Level Albuquerque Center
Sun 07:16:05 PM 32.5069 -108.7717 107° East 481 554 39,000  Level Albuquerque Center
Sun 07:17:06 PM 32.4678 -108.6217 107° East 482 555 39,000  Level Albuquerque Center
Sun 07:18:08 PM 32.4183 -108.4411 108° East 483 556 39,000  Level Albuquerque Center
Sun 07:19:10 PM 32.3781 -108.2981 108° East 490 564 39,000  Level Albuquerque Center
Sun 07:20:11 PM 32.3386 -108.1433 107° East 493 567 39,000  Level Albuquerque Center
Sun 07:21:13 PM 32.2967 -107.9894 108° East 494 568 39,000  Level Albuquerque Center
Sun 07:22:15 PM 32.2458 -107.8061 108° East 493 567 39,000  Level Albuquerque Center
Sun 07:23:17 PM 32.2039 -107.6528 108° East 494 568 39,000  Level Albuquerque Center
Sun 07:24:18 PM 32.1614 -107.5006 108° East 494 568 39,000  Level Albuquerque Center
Sun 07:25:20 PM 32.1197 -107.3456 108° East 499 574 39,000  Level Albuquerque Center
Sun 07:26:22 PM 32.0761 -107.1931 109° East 498 573 39,000  Level Albuquerque Center
Sun 07:27:23 PM 32.0250 -107.0075 108° East 501 577 39,000  Level Albuquerque Center
Sun 07:28:25 PM 31.9817 -106.8544 108° East 499 574 39,000  Level Albuquerque Center
Sun 07:29:27 PM 31.9381 -106.7044 109° East 490 564 39,000  Level Albuquerque Center
Sun 07:30:29 PM 31.8922 -106.5472 109° East 481 554 39,000  Level Albuquerque Center
Sun 07:31:30 PM 31.8514 -106.3967 108° East 482 555 39,000  Level Albuquerque Center
Sun 07:32:32 PM 31.8083 -106.2503 109° East 478 550 39,000  Level Albuquerque Center
Sun 07:33:34 PM 31.7703 -106.1025 107° East 472 543 39,000  Level Albuquerque Center
Sun 07:34:35 PM 31.7333 -105.9539 106° East 474 545 39,000  Level Albuquerque Center
Sun 07:35:37 PM 31.6958 -105.8061 107° East 472 543 39,000  Level Albuquerque Center
Sun 07:36:39 PM 31.6589 -105.6581 106° East 473 544 39,000  Level Albuquerque Center
Sun 07:37:41 PM 31.6139 -105.4797 106° East 475 547 39,000  Level Albuquerque Center
Sun 07:38:42 PM 31.5764 -105.3311 106° East 474 545 39,000  Level Albuquerque Center
Sun 07:39:44 PM 31.5383 -105.1819 107° East 475 547 39,000  Level Albuquerque Center
Sun 07:40:46 PM 31.5006 -105.0342 107° East 473 544 39,000  Level Albuquerque Center
Sun 07:41:48 PM 31.4625 -104.8858 107° East 473 544 39,000  Level Albuquerque Center
Sun 07:42:49 PM 31.4256 -104.7372 106° East 473 544 39,000  Level Albuquerque Center
Sun 07:43:51 PM 31.3864 -104.5875 107° East 477 549 39,000  Level Albuquerque Center
Sun 07:44:53 PM 31.3467 -104.4350 107° East 484 557 39,000  Level Albuquerque Center
Sun 07:45:54 PM 31.2978 -104.2508 107° East 491 565 39,000  Level Albuquerque Center
Sun 07:46:56 PM 31.2578 -104.0978 107° East 492 566 39,000  Level Albuquerque Center
Sun 07:47:58 PM 31.2161 -103.9453 108° East 493 567 39,000 -49 Level Albuquerque Center
Sun 07:48:59 PM 31.1742 -103.7922 108° East 495 570 38,900  Descending Albuquerque Center
Sun 07:50:01 PM 31.1303 -103.6356 108° East 495 570 39,000 48 Climbing Albuquerque Center
Sun 07:51:03 PM 31.0886 -103.4833 108° East 496 571 39,000  Level Albuquerque Center
Sun 07:52:04 PM 31.0469 -103.3300 108° East 498 573 39,000  Level Albuquerque Center
Sun 07:53:06 PM 31.0053 -103.1778 108° East 496 571 39,000  Level Albuquerque Center
Sun 07:54:08 PM 30.9564 -102.9953 107° East 495 570 39,000  Level Albuquerque Center
Sun 07:55:10 PM 30.9378 -102.8369 98° East 502 578 39,000  Level Albuquerque Center
Sun 07:56:11 PM 30.9208 -102.6769 97° East 498 573 39,000  Level Albuquerque Center
Sun 07:57:13 PM 30.9042 -102.5181 97° East 499 574 39,000  Level Albuquerque Center
Sun 07:58:15 PM 30.8878 -102.3592 97° East 500 575 39,000  Level Albuquerque Center
Sun 07:59:17 PM 30.8683 -102.1689 97° East 500 575 39,000  Level Albuquerque Center
Sun 08:00:18 PM 30.8514 -102.0094 97° East 500 575 39,000  Level Albuquerque Center
Sun 08:01:20 PM 30.8492 -101.8489 91° East 501 577 39,000  Level Albuquerque Center
Sun 08:02:31 PM 30.8456 -101.6556 91° East 501 577 39,000  Level Houston Center
Sun 08:03:33 PM 30.8406 -101.4764 92° East 507 583 39,000  Level Houston Center
Sun 08:04:35 PM 30.8347 -101.3111 92° East 509 586 39,000  Level Houston Center
Sun 08:05:36 PM 30.8294 -101.1419 92° East 517 595 39,000  Level Houston Center
Sun 08:06:38 PM 30.8258 -100.9719 91° East 521 600 39,000  Level Houston Center
Sun 08:07:40 PM 30.8206 -100.8025 92° East 521 600 39,000  Level Houston Center
Sun 08:08:42 PM 30.8142 -100.6333 92° East 522 601 39,000  Level Houston Center
Sun 08:09:44 PM 30.8081 -100.4633 92° East 522 601 39,000  Level Houston Center
Sun 08:10:46 PM 30.8008 -100.2611 92° East 522 601 39,000  Level Houston Center
Sun 08:11:48 PM 30.7942 -100.0917 93° East 522 601 39,000  Level Houston Center
Sun 08:12:49 PM 30.7872 -99.9225 93° East 522 601 39,000  Level Houston Center
Sun 08:13:51 PM 30.7803 -99.7533 93° East 522 601 39,000  Level Houston Center
Sun 08:14:53 PM 30.7725 -99.5825 93° East 524 603 39,000  Level Houston Center
Sun 08:15:55 PM 30.7650 -99.4125 93° East 524 603 39,000  Level Houston Center
Sun 08:16:57 PM 30.7578 -99.2442 93° East 525 604 39,000  Level Houston Center
Sun 08:17:58 PM 30.7497 -99.0597 93° East 525 604 39,000  Level Houston Center
Sun 08:19:00 PM 30.7414 -98.8892 93° East 525 604 39,000  Level Houston Center
Sun 08:20:02 PM 30.7322 -98.7194 94° East 524 603 39,000  Level Houston Center
Sun 08:21:04 PM 30.7247 -98.5500 93° East 523 602 39,000  Level Houston Center
Sun 08:22:05 PM 30.7136 -98.3503 94° East 526 605 39,000  Level Houston Center
Sun 08:23:07 PM 30.7042 -98.1781 94° East 527 606 39,000  Level Houston Center
Sun 08:24:09 PM 30.6961 -98.0067 93° East 528 608 39,000  Level Houston Center
Sun 08:25:10 PM 30.6867 -97.8353 94° East 528 608 39,000  Level Houston Center
Sun 08:26:12 PM 30.6769 -97.6647 94° East 528 608 39,000  Level Houston Center
Sun 08:27:14 PM 30.6669 -97.4931 94° East 528 608 39,000  Level Houston Center
Sun 08:28:16 PM 30.6575 -97.3250 94° East 527 606 39,000  Level Houston Center
Sun 08:29:17 PM 30.6464 -97.1294 94° East 526 605 39,000  Level Houston Center
Sun 08:30:19 PM 30.6356 -96.9622 94° East 523 602 39,000  Level Houston Center
Sun 08:31:21 PM 30.6247 -96.7950 94° East 521 600 39,000  Level Houston Center
Sun 08:32:22 PM 30.6122 -96.6292 95° East 518 596 39,000  Level Houston Center
Sun 08:33:24 PM 30.6033 -96.4617 93° East 514 592 39,000  Level Houston Center
Sun 08:34:26 PM 30.5908 -96.2950 95° East 517 595 39,000  Level Houston Center
Sun 08:35:27 PM 30.5803 -96.1256 94° East 520 598 39,000  Level Houston Center
Sun 08:36:29 PM 30.5681 -95.9658 95° East 521 600 39,000  Level Houston Center
Sun 08:37:30 PM 30.5533 -95.7639 95° East 522 601 39,000  Level Houston Center
Sun 08:38:32 PM 30.5414 -95.5953 95° East 522 601 39,000  Level Houston Center
Sun 08:39:34 PM 30.5292 -95.4275 95° East 522 601 39,000  Level Houston Center
Sun 08:40:35 PM 30.5164 -95.2572 95° East 523 602 39,000  Level Houston Center
Sun 08:41:37 PM 30.5036 -95.0892 95° East 523 602 39,000  Level Houston Center
Sun 08:42:38 PM 30.4908 -94.9219 95° East 523 602 39,000  Level Houston Center
Sun 08:43:40 PM 30.4775 -94.7539 95° East 524 603 39,000  Level Houston Center
Sun 08:44:42 PM 30.4617 -94.5514 95° East 524 603 39,000  Level Houston Center
Sun 08:45:43 PM 30.4467 -94.3769 96° East 525 604 39,000  Level Houston Center
Sun 08:46:45 PM 30.4328 -94.2097 95° East 525 604 39,000  Level Houston Center
Sun 08:47:46 PM 30.4194 -94.0417 95° East 525 604 39,000  Level Houston Center
Sun 08:48:48 PM 30.4050 -93.8750 96° East 524 603 39,000  Level Houston Center
Sun 08:49:49 PM 30.3894 -93.7075 96° East 524 603 39,000  Level Houston Center
Sun 08:50:51 PM 30.3733 -93.5186 96° East 528 608 39,000  Level Houston Center
Sun 08:51:52 PM 30.3578 -93.3506 96° East 531 611 39,000  Level Houston Center
Sun 08:52:54 PM 30.3411 -93.1819 96° East 531 611 39,000  Level Houston Center
Sun 08:53:55 PM 30.3250 -93.0131 96° East 531 611 39,000  Level Houston Center
Sun 08:54:57 PM 30.3094 -92.8453 96° East 530 610 39,000  Level Houston Center
Sun 08:55:58 PM 30.2933 -92.6786 96° East 527 606 39,000 -1,024 Level Houston Center
Sun 08:57:00 PM 30.2775 -92.5114 96° East 527 606 36,900 -2,878 Descending Houston Center
Sun 08:58:01 PM 30.2583 -92.3078 96° East 537 618 33,100 -2,780 Descending Houston Center
Sun 08:59:03 PM 30.2419 -92.1372 96° East 540 621 31,200 -2,341 Descending Houston Center
Sun 09:00:04 PM 30.2244 -91.9725 97° East 524 603 28,300 -2,732 Descending Houston Center
Sun 09:01:06 PM 30.2083 -91.8081 96° East 508 585 25,600 -2,488 Descending Houston Center
Sun 09:02:07 PM 30.1925 -91.6642 97° East 496 571 23,200 -2,634 Descending Houston Center
Sun 09:03:09 PM 30.1722 -91.4808 97° East 488 562 20,200 -2,780 Descending Houston Center
Sun 09:04:10 PM 30.1589 -91.3328 96° East 470 541 17,500 -2,488 Descending Houston Center
Sun 09:05:12 PM 30.1422 -91.1903 98° East 454 522 15,100 -2,416 Descending Houston Center
Sun 09:05:27 PM 30.1381 -91.1489 97° East 437 503 14,400 -2,361 Descending Houston Center
Sun 09:06:13 PM 30.1281 -91.0547 97° East 430 495 12,700 -2,500 Descending Houston Center
Sun 09:06:15 PM 30.1250 -91.0364 101° East 421 484 12,400 -2,032 Descending Houston Center
Sun 09:07:15 PM 30.1164 -90.9239 95° East 415 478 10,600 -1,869 Descending Houston Center
Sun 09:07:16 PM 30.1133 -90.9069 102° East 404 465 10,500 -984 Descending Houston Center
Sun 09:08:16 PM 30.1072 -90.8058 94° East 381 438 9,600 -885 Descending Houston Center
Sun 09:08:17 PM 30.1042 -90.7919 104° East 349 402 9,600 -885 Level Houston Center
Sun 09:09:17 PM 30.0764 -90.6944 108° East 309 356 8,700 -787 Descending Houston Center
Sun 09:09:18 PM 30.0808 -90.7072 292° West 325 374 8,800 -1,377 Climbing Houston Center
Sun 09:10:18 PM 30.0469 -90.6042 111° Southeast 298 343 7,300 -1,279 Descending Houston Center
Sun 09:10:19 PM 30.0511 -90.6158 292° West 311 358 7,500 -1,333 Climbing Houston Center
Sun 09:11:21 PM 30.0172 -90.5108 110° East 299 344 5,900 -1,545 Descending Houston Center
Sun 09:11:25 PM 30.0106 -90.5022 132° Southeast 290 334 5,800 -1,279 Descending Houston Center
Sun 09:12:22 PM 29.9758 -90.4328 120° Southeast 290 334 4,600 -1,300 Descending Houston Center
Sun 09:12:25 PM 29.9708 -90.4244 125° Southeast 281 323 4,500 -1,452 Descending Houston Center
Sun 09:13:24 PM 29.9375 -90.3603 121° Southeast 281 323 3,100 -1,574 Descending Houston Center
Sun 09:13:26 PM 29.9353 -90.3539 112° Southeast 251 289 2,900 -984 Descending Houston Center
Sun 09:14:25 PM 29.9211 -90.2933 105° East 246 283 2,100 -800 Descending Houston Center
Sun 09:14:26 PM 29.9186 -90.2897 129° Southeast 185 213 2,100 -1,279 Level Houston Center
Sun 09:15:26 PM 29.9475 -90.2631 39° Northeast 190 219 800 -1,377 Descending Houston Center
Sun 09:15:27 PM 29.9492 -90.2622 23° Northeast 138 159 700 -581 Descending Houston Center
Sun 09:16:28 PM 29.9875 -90.2514 14° North 161 185 200 -492 Descending Houston Center
Sun 09:18:00 PM 29.9833 -90.2500 North  Level FlightAware Approximate
Sun 09:25:00 PM 29.9933 -90.2590 North  Level Estimated

Login

Don't have an account? Register now (free) for customized features, flight alerts, and more!